Time;durP1;ratioP1;P1;durP2;ratioP2;P2;SDS_P1;SDS_P2;PMS_P1;PMS_P2;Temp;Humidity;BMP_temperature;BMP_pressure;BME280_temperature;BME280_humidity;BME280_pressure;Samples;Min_cycle;Max_cycle;Signal;HPM_P1;HPM_P2
2021/05/27 00:00:20;;;;;;;12.30;4.10;;;;;;;8.95;88.94;100363.75;5076640;28;20574;-84
2021/05/27 00:02:46;;;;;;;9.93;4.07;;;;;;;8.88;89.49;100373.09;5076986;28;20104;-83
2021/05/27 00:05:12;;;;;;;7.28;3.40;;;;;;;8.90;88.03;100373.88;5094696;28;20024;-83
2021/05/27 00:07:37;;;;;;;9.38;3.70;;;;;;;8.83;87.55;100370.69;5073144;28;20445;-84
2021/05/27 00:10:07;;;;;;;13.40;4.45;;;;;;;8.89;88.62;100373.94;5076714;28;20030;-84
2021/05/27 00:12:33;;;;;;;12.40;3.90;;;;;;;8.82;89.22;100373.47;5072221;28;20544;-82
2021/05/27 00:14:58;;;;;;;10.18;4.05;;;;;;;8.78;89.34;100375.44;5076479;28;20020;-83
2021/05/27 00:17:23;;;;;;;10.25;4.10;;;;;;;8.73;89.58;100368.63;5076642;28;20024;-83
2021/05/27 00:19:49;;;;;;;13.60;4.45;;;;;;;8.82;90.12;100373.47;5075655;28;20452;-82
2021/05/27 00:22:14;;;;;;;10.48;4.70;;;;;;;8.76;89.40;100365.75;5093086;28;20020;-82
2021/05/27 00:24:40;;;;;;;10.38;5.00;;;;;;;8.76;89.45;100365.75;5093026;28;20103;-82
2021/05/27 00:27:06;;;;;;;15.90;4.88;;;;;;;8.80;89.05;100367.31;5093421;28;20034;-83
2021/05/27 00:29:32;;;;;;;17.30;5.82;;;;;;;8.76;89.24;100363.09;5079971;28;20025;-85
2021/05/27 00:31:57;;;;;;;13.77;4.90;;;;;;;8.72;89.25;100365.06;5093361;28;20028;-81
2021/05/27 00:34:22;;;;;;;11.35;4.45;;;;;;;8.76;89.74;100368.44;5076671;28;20059;-83
2021/05/27 00:36:48;;;;;;;10.25;4.20;;;;;;;8.77;90.14;100360.34;5082667;28;20058;-81
2021/05/27 00:39:13;;;;;;;18.02;4.90;;;;;;;8.80;88.66;100375.38;5063936;28;20413;-81
2021/05/27 00:41:38;;;;;;;16.05;5.40;;;;;;;8.82;89.23;100368.09;5075728;28;20492;-84
2021/05/27 00:44:26;;;;;;;12.10;5.68;;;;;;;8.75;89.50;100380.09;5087766;28;20016;-81
2021/05/27 00:46:52;;;;;;;9.73;4.88;;;;;;;8.73;89.48;100384.69;5089672;28;20161;-81
2021/05/27 00:49:18;;;;;;;12.70;5.80;;;;;;;8.72;89.97;100374.91;5072683;28;20058;-82
2021/05/27 00:51:45;;;;;;;11.98;4.97;;;;;;;8.78;89.30;100383.47;5089114;28;20097;-82
2021/05/27 00:54:12;;;;;;;23.38;5.28;;;;;;;8.70;90.67;100384.84;5076102;28;20102;-83
2021/05/27 00:56:37;;;;;;;15.68;5.55;;;;;;;8.70;90.83;100383.03;5092881;28;20126;-84
2021/05/27 00:59:03;;;;;;;13.90;5.40;;;;;;;8.72;90.87;100388.31;5093110;28;20443;-84
2021/05/27 01:01:28;;;;;;;12.55;4.60;;;;;;;8.79;90.08;100384.34;5093112;28;20024;-83
2021/05/27 01:03:54;;;;;;;13.07;5.32;;;;;;;8.79;90.04;100378.97;5074358;28;20020;-85
2021/05/27 01:06:19;;;;;;;13.75;5.38;;;;;;;8.76;89.70;100388.06;5072905;28;20029;-84
2021/05/27 01:08:44;;;;;;;10.13;5.38;;;;;;;8.73;91.39;100384.69;5074932;28;20063;-84
2021/05/27 01:11:10;;;;;;;12.30;5.00;;;;;;;8.73;90.75;100371.31;5076382;28;20020;-84
2021/05/27 01:13:35;;;;;;;13.93;4.97;;;;;;;8.74;90.64;100383.72;5076041;28;20060;-85
2021/05/27 01:16:01;;;;;;;13.95;5.20;;;;;;;8.74;89.81;100389.94;5077242;28;20134;-86
2021/05/27 01:18:27;;;;;;;9.60;5.38;;;;;;;8.69;89.80;100388.50;5092639;28;20447;-84
2021/05/27 01:20:56;;;;;;;9.60;4.88;;;;;;;8.73;90.42;100390.06;5075900;28;20092;-84
2021/05/27 01:23:23;;;;;;;11.90;3.88;;;;;;;8.59;89.35;100372.94;5093049;28;20025;-84
2021/05/27 01:25:50;;;;;;;8.90;4.80;;;;;;;8.64;90.00;100388.75;5092625;28;20386;-85
2021/05/27 01:28:16;;;;;;;12.52;4.10;;;;;;;8.66;90.88;100388.66;5075727;28;20028;-82
2021/05/27 01:30:42;;;;;;;14.63;3.95;;;;;;;8.71;90.05;100387.47;5075673;28;20028;-84
2021/05/27 01:33:12;;;;;;;10.32;4.40;;;;;;;8.68;91.49;100392.09;5092600;28;20047;-83
2021/05/27 01:35:38;;;;;;;10.93;4.30;;;;;;;8.64;90.60;100388.75;5075762;28;20074;-83
2021/05/27 01:38:20;;;;;;;10.60;4.20;;;;;;;8.63;90.69;100385.22;5092659;28;20461;-84
2021/05/27 01:40:47;;;;;;;12.85;4.50;;;;;;;8.61;91.23;100375.53;5075831;28;20024;-84
2021/05/27 01:43:13;;;;;;;10.80;4.87;;;;;;;8.73;90.83;100387.38;5093848;28;20024;-83
2021/05/27 01:45:38;;;;;;;10.95;4.55;;;;;;;8.68;90.72;100392.09;5076570;28;20257;-81
2021/05/27 01:48:05;;;;;;;11.35;5.15;;;;;;;8.66;89.85;100388.66;5083192;28;20479;-82
2021/05/27 01:50:30;;;;;;;10.95;4.72;;;;;;;8.62;90.63;100388.81;5092507;28;20031;-84
2021/05/27 01:52:58;;;;;;;10.85;4.82;;;;;;;8.65;89.76;100385.09;5059590;28;20020;-81
2021/05/27 01:55:24;;;;;;;8.23;4.40;;;;;;;8.64;90.51;100373.53;5075700;28;20111;-81
2021/05/27 01:57:49;;;;;;;12.43;4.47;;;;;;;8.69;89.13;100388.50;5059217;28;20059;-82
2021/05/27 02:00:15;;;;;;;12.73;4.10;;;;;;;8.67;89.39;100385.03;5095982;28;20067;-85
2021/05/27 02:02:40;;;;;;;12.65;4.10;;;;;;;8.68;89.71;100384.06;5079001;28;20028;-82
2021/05/27 02:05:06;;;;;;;8.88;3.85;;;;;;;8.69;89.14;100381.31;5095912;28;20031;-82
2021/05/27 02:07:31;;;;;;;11.68;4.30;;;;;;;8.61;90.17;100380.91;5078777;28;20028;-84
2021/05/27 02:09:57;;;;;;;10.05;3.88;;;;;;;8.56;89.74;100386.50;5078860;28;20069;-82
2021/05/27 02:12:22;;;;;;;12.18;4.10;;;;;;;8.56;89.75;100390.97;5079109;28;20471;-81
2021/05/27 02:14:48;;;;;;;9.82;3.40;;;;;;;8.58;89.63;100387.25;5095728;28;20077;-82
2021/05/27 02:17:13;;;;;;;9.77;3.90;;;;;;;8.57;91.54;100387.38;5095529;28;20109;-81
2021/05/27 02:19:39;;;;;;;11.77;3.53;;;;;;;8.64;90.73;100384.25;5095836;28;20040;-82
2021/05/27 02:22:04;;;;;;;10.05;3.45;;;;;;;8.58;89.42;100376.56;5095801;28;20024;-82
2021/05/27 02:24:29;;;;;;;8.32;3.05;;;;;;;8.55;89.43;100376.72;5083915;28;20490;-82
2021/05/27 02:26:55;;;;;;;11.98;3.63;;;;;;;8.47;90.18;100373.63;5095662;28;20035;-83
2021/05/27 02:29:20;;;;;;;9.32;3.70;;;;;;;8.40;90.26;100361.50;5095446;28;20024;-82
2021/05/27 02:31:45;;;;;;;12.82;3.80;;;;;;;8.39;89.15;100375.81;5078600;28;20024;-82
2021/05/27 02:34:11;;;;;;;8.77;3.17;;;;;;;8.35;91.12;100375.13;5095383;28;20169;-82
2021/05/27 02:36:36;;;;;;;9.15;3.13;;;;;;;8.33;90.17;100379.72;5078548;28;20088;-82
2021/05/27 02:39:02;;;;;;;7.95;3.08;;;;;;;8.32;89.60;100374.44;5095642;28;20035;-82
2021/05/27 02:41:27;;;;;;;6.38;2.25;;;;;;;8.26;90.10;100374.75;5095378;28;20107;-82
2021/05/27 02:43:53;;;;;;;8.48;2.78;;;;;;;8.28;89.37;100372.88;5094888;28;20070;-83
2021/05/27 02:46:19;;;;;;;12.32;2.30;;;;;;;8.32;89.02;100377.97;5078372;28;20535;-82
2021/05/27 02:48:44;;;;;;;12.65;3.85;;;;;;;8.22;89.96;100374.09;5095431;28;20028;-81
2021/05/27 02:51:09;;;;;;;7.50;2.30;;;;;;;8.15;89.37;100376.22;5080312;28;20475;-81
2021/05/27 02:53:35;;;;;;;6.78;2.17;;;;;;;8.06;89.89;100365.16;5096228;28;20037;-82
2021/05/27 02:56:00;;;;;;;6.63;2.00;;;;;;;8.17;87.81;100379.69;5094931;28;20028;-82
2021/05/27 02:58:25;;;;;;;7.53;1.80;;;;;;;8.04;88.93;100359.88;5077873;28;20387;-83
2021/05/27 03:00:51;;;;;;;11.32;2.17;;;;;;;8.06;89.45;100363.34;5094222;28;20112;-82
2021/05/27 03:03:17;;;;;;;10.05;2.67;;;;;;;8.04;89.36;100365.22;5078248;28;20020;-82
2021/05/27 03:05:43;;;;;;;6.72;1.83;;;;;;;8.12;88.62;100373.72;5078142;28;20081;-82
2021/05/27 03:08:09;;;;;;;5.30;2.58;;;;;;;8.14;89.57;100371.81;5077960;28;20024;-82
2021/05/27 03:10:34;;;;;;;7.20;1.80;;;;;;;8.06;89.61;100368.69;5093703;28;20031;-84
2021/05/27 03:13:00;;;;;;;6.82;1.90;;;;;;;8.09;89.53;100375.69;5078273;28;20049;-83
2021/05/27 03:15:25;;;;;;;8.00;2.42;;;;;;;8.04;90.07;100370.59;5078194;28;20028;-83
2021/05/27 03:17:50;;;;;;;3.90;1.88;;;;;;;8.02;90.48;100367.13;5077700;28;20020;-82
2021/05/27 03:20:16;;;;;;;9.80;1.77;;;;;;;8.00;89.10;100377.03;5077724;28;20161;-83
2021/05/27 03:22:41;;;;;;;5.93;1.70;;;;;;;8.00;89.91;100371.69;5077713;28;20165;-83
2021/05/27 03:25:08;;;;;;;6.90;1.75;;;;;;;7.95;89.71;100371.06;5077820;28;20177;-84
2021/05/27 03:27:33;;;;;;;5.40;2.03;;;;;;;7.92;89.00;100377.47;5094530;28;20027;-82
2021/05/27 03:29:59;;;;;;;7.55;1.40;;;;;;;7.87;88.99;100370.63;5083431;28;20032;-82
2021/05/27 03:32:24;;;;;;;4.35;1.50;;;;;;;7.89;88.79;100374.06;5077537;28;20034;-82
2021/05/27 03:34:49;;;;;;;5.70;1.50;;;;;;;7.86;88.74;100358.19;5077406;28;20048;-83
2021/05/27 03:37:15;;;;;;;3.40;1.08;;;;;;;7.89;88.28;100361.59;5077291;28;20020;-82
2021/05/27 03:40:09;;;;;;;5.22;1.40;;;;;;;7.80;90.02;100367.41;5077468;28;20061;-83
2021/05/27 03:42:25;;;;;;;5.03;1.38;;;;;;;7.88;89.59;100375.88;5094662;28;20082;-83
2021/05/27 03:44:51;;;;;;;3.17;1.42;;;;;;;7.85;90.14;100375.19;5094107;28;20417;-82
2021/05/27 03:47:16;;;;;;;5.25;2.17;;;;;;;7.93;89.93;100371.16;5077141;28;20031;-82
2021/05/27 03:49:41;;;;;;;4.90;2.08;;;;;;;7.90;89.87;100379.34;5094161;28;20467;-83
2021/05/27 03:52:07;;;;;;;4.75;1.63;;;;;;;7.94;89.10;100385.41;5094114;28;20046;-82
2021/05/27 03:54:32;;;;;;;4.35;2.00;;;;;;;7.93;89.71;100378.31;5077147;28;20031;-84
2021/05/27 03:56:57;;;;;;;6.88;2.13;;;;;;;7.90;90.03;100376.69;5093826;28;20043;-82
2021/05/27 04:02:06;;;;;;;6.05;2.10;;;;;;;8.01;90.93;100373.44;5094361;28;20093;-82
2021/05/27 04:07:17;;;;;;;6.05;2.60;;;;;;;8.03;90.28;100387.59;5093752;28;20081;-83
2021/05/27 04:09:42;;;;;;;7.13;2.83;;;;;;;8.02;91.61;100381.34;5077116;28;20020;-83
2021/05/27 04:17:39;;;;;;;7.57;3.10;;;;;;;8.05;91.15;100387.50;5073867;28;20032;-83
2021/05/27 04:20:06;;;;;;;6.00;3.00;;;;;;;8.11;91.23;100392.53;5073522;28;20017;-83
2021/05/27 04:22:32;;;;;;;15.63;3.63;;;;;;;8.16;90.67;100401.16;5056817;28;20108;-80
2021/05/27 04:24:57;;;;;;;13.80;3.42;;;;;;;8.16;92.03;100402.03;5056577;28;20647;-83
2021/05/27 04:27:22;;;;;;;12.27;3.20;;;;;;;8.15;92.08;100391.44;5073181;28;20060;-83
2021/05/27 04:29:47;;;;;;;11.38;3.20;;;;;;;8.22;91.06;100407.06;5073296;28;20028;-84
2021/05/27 04:32:53;;;;;;;9.35;3.13;;;;;;;8.25;90.82;100405.16;5056460;28;20036;-83
2021/05/27 04:34:58;;;;;;;11.63;3.35;;;;;;;8.26;91.98;100399.72;5079571;28;20048;-83
2021/05/27 04:37:23;;;;;;;14.98;3.67;;;;;;;8.27;90.69;100404.13;5076175;28;20027;-83
2021/05/27 04:39:49;;;;;;;8.15;3.30;;;;;;;8.27;92.02;100408.63;5093340;28;20047;-82
2021/05/27 04:42:14;;;;;;;11.95;4.00;;;;;;;8.25;91.39;100400.66;5076589;28;20024;-83
2021/05/27 04:44:40;;;;;;;10.68;3.40;;;;;;;8.19;91.56;100401.00;5094497;28;20058;-82
2021/05/27 04:47:05;;;;;;;12.15;3.88;;;;;;;8.32;90.47;100411.91;5093060;28;20024;-83
2021/05/27 04:49:30;;;;;;;13.90;3.85;;;;;;;8.28;90.03;100410.34;5076528;28;20020;-83
2021/05/27 04:51:55;;;;;;;10.75;3.22;;;;;;;8.34;90.23;100413.56;5075971;28;20020;-81
2021/05/27 04:54:21;;;;;;;7.38;2.83;;;;;;;8.40;90.65;100413.25;5093100;28;20024;-82
2021/05/27 04:56:46;;;;;;;10.73;3.50;;;;;;;8.40;91.00;100425.75;5092994;28;20386;-82
2021/05/27 04:59:11;;;;;;;8.32;2.88;;;;;;;8.40;90.82;100425.75;5089250;28;20020;-83
2021/05/27 05:01:37;;;;;;;7.13;2.97;;;;;;;8.48;91.18;100428.91;5076090;28;20028;-81
2021/05/27 05:04:03;;;;;;;12.52;3.53;;;;;;;8.40;90.95;100421.31;5076047;28;20113;-82
2021/05/27 05:06:28;;;;;;;7.32;3.53;;;;;;;8.49;90.53;100425.25;5076191;28;20444;-82
2021/05/27 05:08:54;;;;;;;8.48;3.65;;;;;;;8.54;90.62;100431.25;5066290;28;20024;-82
2021/05/27 05:11:20;;;;;;;11.47;3.30;;;;;;;8.55;90.26;100434.78;5072917;28;20029;-82
2021/05/27 05:13:45;;;;;;;8.48;3.20;;;;;;;8.56;90.77;100431.16;5072581;28;20025;-82
2021/05/27 05:16:10;;;;;;;12.75;3.00;;;;;;;8.60;90.29;100438.06;5072514;28;20085;-82
2021/05/27 05:18:36;;;;;;;12.23;3.67;;;;;;;8.62;89.63;100445.06;5072906;28;20029;-84
2021/05/27 05:21:01;;;;;;;10.80;2.92;;;;;;;8.62;90.75;100450.44;5072593;28;20506;-83
2021/05/27 05:23:26;;;;;;;11.30;3.90;;;;;;;8.59;91.67;100447.06;5066998;28;20108;-83
2021/05/27 05:25:52;;;;;;;11.35;3.50;;;;;;;8.59;90.58;100447.94;5079779;28;20024;-85
2021/05/27 05:28:17;;;;;;;9.95;3.85;;;;;;;8.63;90.54;100449.50;5079638;28;20084;-83
2021/05/27 05:30:43;;;;;;;12.13;4.35;;;;;;;8.65;90.77;100457.41;5096733;28;20085;-82
2021/05/27 05:33:09;;;;;;;13.68;3.75;;;;;;;8.66;89.45;100459.16;5076354;28;20522;-85
2021/05/27 05:35:34;;;;;;;9.88;2.80;;;;;;;8.77;89.10;100458.56;5071194;28;20115;-83
2021/05/27 05:38:00;;;;;;;11.05;3.42;;;;;;;8.72;90.10;100463.31;5086996;28;20020;-84
2021/05/27 05:40:27;;;;;;;13.68;3.58;;;;;;;8.82;90.21;100468.09;5079881;28;20379;-84
2021/05/27 05:42:53;;;;;;;8.48;3.53;;;;;;;8.81;89.86;100460.97;5079774;28;20024;-84
2021/05/27 05:45:19;;;;;;;10.27;3.63;;;;;;;8.85;89.91;100472.41;5096614;28;20493;-85
2021/05/27 05:47:49;;;;;;;11.15;3.08;;;;;;;8.87;90.24;100464.28;5096830;28;20025;-86
2021/05/27 05:50:44;;;;;;;8.65;3.03;;;;;;;8.84;90.44;100465.31;5095902;28;20118;-83
2021/05/27 05:53:00;;;;;;;14.70;3.90;;;;;;;8.81;91.07;100470.84;5076118;28;20025;-79
2021/05/27 05:55:25;;;;;;;10.32;3.58;;;;;;;8.86;90.49;100476.81;5059070;28;20043;-83
2021/05/27 05:57:51;;;;;;;11.50;2.85;;;;;;;8.81;89.97;100473.53;5059517;28;20543;-81
2021/05/27 06:00:17;;;;;;;10.15;3.00;;;;;;;8.90;90.32;100489.09;5088261;28;20025;-83
2021/05/27 06:02:42;;;;;;;10.55;2.80;;;;;;;8.97;90.23;100490.47;5076025;28;20020;-82
2021/05/27 06:05:07;;;;;;;7.95;2.60;;;;;;;9.12;90.75;100496.81;5096359;28;20085;-84
2021/05/27 06:07:33;;;;;;;12.77;2.78;;;;;;;9.20;90.04;100496.38;5070261;28;20028;-82
2021/05/27 06:09:58;;;;;;;6.07;2.40;;;;;;;9.33;89.13;100497.41;5078409;28;20027;-80
2021/05/27 06:12:23;;;;;;;6.85;2.28;;;;;;;9.38;89.80;100492.63;5095028;28;20494;-79
2021/05/27 06:14:49;;;;;;;8.27;2.90;;;;;;;9.44;89.06;100496.75;5095284;28;20119;-79
2021/05/27 06:17:14;;;;;;;8.18;2.42;;;;;;;9.63;88.56;100493.88;5079321;28;20099;-84
2021/05/27 06:19:39;;;;;;;7.10;2.03;;;;;;;9.72;88.69;100492.47;5078481;28;20025;-82
2021/05/27 06:22:06;;;;;;;9.30;2.67;;;;;;;9.88;87.70;100502.19;5078651;28;20024;-82
2021/05/27 06:24:31;;;;;;;4.85;2.20;;;;;;;10.18;87.66;100512.06;5095868;28;20035;-83
2021/05/27 06:26:57;;;;;;;6.35;1.90;;;;;;;10.14;86.09;100499.78;5095684;28;20035;-82
2021/05/27 06:29:22;;;;;;;6.50;2.00;;;;;;;10.28;85.52;100510.59;5082589;28;20532;-81
2021/05/27 06:31:48;;;;;;;7.35;1.98;;;;;;;10.26;85.74;100509.78;5095337;28;20026;-82
2021/05/27 06:34:13;;;;;;;3.78;1.70;;;;;;;10.56;84.69;100516.06;5095093;28;20067;-84
2021/05/27 06:36:38;;;;;;;5.80;2.33;;;;;;;10.42;84.35;100519.59;5094181;28;20471;-83
2021/05/27 06:39:04;;;;;;;8.73;1.80;;;;;;;10.27;85.33;100533.00;5078200;28;20050;-82
2021/05/27 06:41:29;;;;;;;5.32;1.70;;;;;;;10.22;85.76;100529.72;5094773;28;20475;-82
2021/05/27 06:43:55;;;;;;;5.55;1.90;;;;;;;10.13;87.39;100532.09;5078155;28;20058;-84
2021/05/27 06:46:21;;;;;;;5.22;2.20;;;;;;;10.18;86.68;100532.69;5067130;28;20025;-82
2021/05/27 06:48:46;;;;;;;6.43;1.87;;;;;;;10.33;86.18;100531.81;5074895;28;20047;-79
2021/05/27 06:51:12;;;;;;;4.10;1.73;;;;;;;10.25;85.90;100524.16;5078952;28;20036;-83
2021/05/27 06:53:37;;;;;;;7.05;2.22;;;;;;;10.16;86.43;100530.09;5057841;28;20066;-82
2021/05/27 06:56:03;;;;;;;5.47;2.45;;;;;;;10.07;87.19;100538.69;5057789;28;20029;-82
2021/05/27 06:58:28;;;;;;;5.47;2.35;;;;;;;9.97;86.79;100535.69;5074661;28;20103;-81
2021/05/27 07:00:53;;;;;;;6.97;2.42;;;;;;;9.99;86.75;100549.88;5074623;28;20024;-81
2021/05/27 07:03:21;;;;;;;5.47;2.67;;;;;;;10.10;86.21;100555.50;5060243;28;20115;-82
2021/05/27 07:05:47;;;;;;;7.93;2.38;;;;;;;10.32;87.07;100551.53;5084090;28;20024;-82
2021/05/27 07:08:12;;;;;;;7.95;2.95;;;;;;;10.39;85.54;100549.34;5084522;28;20081;-82
2021/05/27 07:10:37;;;;;;;6.97;2.42;;;;;;;10.53;86.01;100549.38;5089989;28;20554;-83
2021/05/27 07:13:06;;;;;;;5.60;2.50;;;;;;;10.66;84.79;100554.88;5081012;28;20031;-82
2021/05/27 07:15:32;;;;;;;12.45;3.03;;;;;;;10.47;84.22;100544.41;5094869;28;20028;-83
2021/05/27 07:17:57;;;;;;;8.65;3.05;;;;;;;10.49;84.74;100548.72;5077693;28;20356;-83
2021/05/27 07:20:24;;;;;;;7.63;2.58;;;;;;;10.39;86.24;100563.63;5094487;28;20073;-83
2021/05/27 07:22:50;;;;;;;;;;;;;;;10.35;85.37;100567.50;5077902;28;20401;-83
2021/05/27 07:25:16;;;;;;;11.27;3.85;;;;;;;10.28;86.92;100569.69;5077678;28;19912;-82
2021/05/27 07:27:45;;;;;;;6.82;2.65;;;;;;;10.30;86.09;100570.44;5077079;28;20034;-83
2021/05/27 07:30:11;;;;;;;10.98;2.67;;;;;;;10.44;86.80;100569.63;5077968;28;20024;-83
2021/05/27 07:32:36;;;;;;;10.65;4.50;;;;;;;10.66;86.55;100569.16;5094150;28;20077;-83
2021/05/27 07:35:03;;;;;;;8.00;2.80;;;;;;;10.87;85.13;100576.84;5094577;28;20077;-83
2021/05/27 07:37:29;;;;;;;11.50;3.83;;;;;;;10.97;84.83;100574.44;5077589;28;20020;-83
2021/05/27 07:39:54;;;;;;;12.35;2.92;;;;;;;11.14;83.60;100575.13;5094280;28;20040;-83
2021/05/27 07:42:19;;;;;;;11.93;3.70;;;;;;;11.26;82.85;100578.00;5091228;28;20020;-83
2021/05/27 07:44:45;;;;;;;12.07;3.50;;;;;;;11.38;82.70;100574.50;5090866;28;20032;-82
2021/05/27 07:47:10;;;;;;;15.02;3.33;;;;;;;11.46;82.00;100595.53;5083529;28;20067;-83
2021/05/27 07:49:36;;;;;;;8.82;3.13;;;;;;;11.49;81.90;100598.91;5094241;28;20028;-81
2021/05/27 07:52:02;;;;;;;11.23;3.47;;;;;;;11.48;82.39;100591.78;5076439;28;20538;-83
2021/05/27 07:54:28;;;;;;;9.55;3.40;;;;;;;11.52;83.07;100597.84;5093349;28;20062;-82
2021/05/27 07:56:53;;;;;;;10.45;3.30;;;;;;;11.64;81.85;100597.03;5072913;28;20028;-82
2021/05/27 07:59:19;;;;;;;15.98;3.80;;;;;;;11.43;83.07;100601.97;5075995;28;20437;-83
2021/05/27 08:01:45;;;;;;;9.80;3.35;;;;;;;11.19;83.34;100607.09;5076676;28;20024;-84
2021/05/27 08:04:10;;;;;;;15.27;3.85;;;;;;;11.10;83.60;100615.75;5093814;28;20024;-85
2021/05/27 08:06:36;;;;;;;10.68;4.05;;;;;;;11.03;83.50;100615.25;5076785;28;20028;-85
2021/05/27 08:09:03;;;;;;;9.05;3.25;;;;;;;11.18;82.56;100618.81;5083035;28;20032;-85
2021/05/27 08:11:28;;;;;;;9.60;2.83;;;;;;;11.18;82.42;100620.63;5076703;28;20081;-84
2021/05/27 08:13:54;;;;;;;12.05;2.70;;;;;;;11.06;82.49;100617.75;5076447;28;20528;-85
2021/05/27 08:16:19;;;;;;;9.00;3.72;;;;;;;10.99;83.05;100623.59;5076478;28;20122;-83
2021/05/27 08:18:44;;;;;;;13.18;2.95;;;;;;;10.99;82.66;100626.31;5076435;28;20438;-83
2021/05/27 08:21:10;;;;;;;9.80;3.45;;;;;;;10.97;83.20;100622.84;5082487;28;20050;-83
2021/05/27 08:23:35;;;;;;;14.02;3.30;;;;;;;10.95;83.04;100626.50;5056208;28;20514;-87
2021/05/27 08:26:00;;;;;;;9.93;3.38;;;;;;;10.73;84.29;100624.25;5063891;28;20031;-84
2021/05/27 08:28:26;;;;;;;12.90;4.10;;;;;;;10.66;86.22;100635.47;5093282;28;20050;-82
2021/05/27 08:30:52;;;;;;;9.27;3.33;;;;;;;10.56;87.13;100634.28;5078735;28;20025;-81
2021/05/27 08:33:17;;;;;;;19.98;3.53;;;;;;;10.57;86.11;100628.81;5072898;28;20052;-84
2021/05/27 08:35:43;;;;;;;8.93;3.28;;;;;;;10.78;86.79;100645.47;5072786;28;20029;-84
2021/05/27 08:38:08;;;;;;;15.32;3.75;;;;;;;10.86;85.47;100645.88;5072982;28;20028;-81
2021/05/27 08:40:33;;;;;;;10.18;3.15;;;;;;;11.22;84.19;100633.78;5086558;28;20035;-83
2021/05/27 08:42:59;;;;;;;10.75;3.25;;;;;;;11.43;84.38;100655.78;5076169;28;20028;-82
2021/05/27 08:45:30;;;;;;;11.23;3.22;;;;;;;11.52;84.52;100663.25;5076240;28;20058;-84
2021/05/27 08:47:56;;;;;;;8.30;3.10;;;;;;;11.58;82.41;100643.19;5093012;28;20035;-82
2021/05/27 08:50:29;;;;;;;10.93;2.70;;;;;;;11.41;83.81;100656.84;5076064;28;20016;-82
2021/05/27 08:52:56;;;;;;;7.97;2.45;;;;;;;11.43;83.36;100663.00;5094091;28;20035;-82
2021/05/27 08:55:21;;;;;;;8.65;2.20;;;;;;;11.18;84.33;100669.03;5076274;28;20028;-85
2021/05/27 08:57:47;;;;;;;5.53;2.08;;;;;;;11.10;84.52;100665.00;5093012;28;20429;-85
2021/05/27 09:00:13;;;;;;;6.88;2.47;;;;;;;11.13;85.27;100675.56;5092809;28;20032;-84
2021/05/27 09:03:01;;;;;;;8.95;2.58;;;;;;;11.09;84.87;100684.78;5076400;28;20024;-85
2021/05/27 09:05:33;;;;;;;9.48;2.67;;;;;;;11.20;84.20;100689.50;5090411;28;20503;-86
2021/05/27 09:07:59;;;;;;;8.15;3.03;;;;;;;11.20;84.86;100697.56;5072694;28;20036;-83
2021/05/27 09:10:41;;;;;;;6.82;2.95;;;;;;;11.29;84.21;100683.53;5072510;28;20036;-81
2021/05/27 09:13:17;;;;;;;8.98;2.70;;;;;;;11.37;84.33;100705.47;5073680;28;20491;-82
2021/05/27 09:15:44;;;;;;;5.47;2.40;;;;;;;11.31;84.45;100707.66;5072827;28;20033;-81
2021/05/27 09:18:11;;;;;;;14.68;3.20;;;;;;;11.19;85.73;100703.06;5072602;28;20058;-81
2021/05/27 09:20:37;;;;;;;12.68;3.10;;;;;;;11.06;85.79;100709.16;5085600;28;20032;-83
2021/05/27 09:23:17;;;;;;;11.27;2.78;;;;;;;11.30;84.47;100714.00;5075786;28;20028;-85
2021/05/27 09:25:45;;;;;;;5.68;2.72;;;;;;;11.64;85.39;100707.38;5075737;28;20028;-85
2021/05/27 09:28:11;;;;;;;9.40;2.85;;;;;;;11.97;83.65;100717.84;5072268;28;20021;-82
2021/05/27 09:30:42;;;;;;;7.40;2.50;;;;;;;12.19;83.24;100717.31;5072416;28;20031;-81
2021/05/27 09:33:08;;;;;;;6.95;3.15;;;;;;;12.23;83.24;100723.38;5089129;28;20373;-82
2021/05/27 09:35:34;;;;;;;7.93;2.83;;;;;;;12.12;82.90;100713.28;5072175;28;20025;-82
2021/05/27 09:37:59;;;;;;;9.57;2.67;;;;;;;12.27;82.46;100722.16;5072143;28;20455;-85
2021/05/27 09:40:39;;;;;;;10.45;3.00;;;;;;;12.33;82.58;100729.00;5072732;28;20032;-84
2021/05/27 09:43:06;;;;;;;10.07;2.90;;;;;;;12.69;81.02;100733.75;5072463;28;20046;-82
2021/05/27 09:45:33;;;;;;;9.13;2.60;;;;;;;13.49;80.07;100736.38;5075142;28;20027;-82
2021/05/27 09:48:16;;;;;;;11.90;2.65;;;;;;;14.80;73.90;100724.97;5075375;28;20035;-83
2021/05/27 09:50:42;;;;;;;10.73;2.63;;;;;;;15.14;72.03;100736.75;5092130;28;20510;-82
2021/05/27 09:53:19;;;;;;;6.88;2.20;;;;;;;17.53;64.34;100739.69;5075469;28;20036;-86
2021/05/27 09:55:45;;;;;;;6.53;2.08;;;;;;;18.70;59.58;100751.81;5075422;28;20039;-81
2021/05/27 09:58:12;;;;;;;4.78;1.85;;;;;;;18.22;61.17;100758.03;5092118;28;20024;-83
2021/05/27 10:00:38;;;;;;;;;;;;;;;17.24;62.92;100758.50;5068388;28;20167;-83
2021/05/27 10:03:35;;;;;;;8.00;2.42;;;;;;;16.07;66.67;100764.69;5075039;28;19916;-83
2021/05/27 10:06:02;;;;;;;8.05;2.67;;;;;;;15.22;69.30;100767.75;5071970;28;20025;-82
2021/05/27 10:08:29;;;;;;;;;;;;;;;14.35;70.41;100775.22;5083369;28;20028;-83
2021/05/27 10:10:55;;;;;;;6.22;2.40;;;;;;;14.13;72.96;100770.53;5075426;28;19912;-82
2021/05/27 10:13:25;;;;;;;5.93;2.40;;;;;;;13.86;73.29;100774.25;5087637;28;20028;-83
2021/05/27 10:15:50;;;;;;;6.05;2.47;;;;;;;13.87;74.75;100776.81;5095563;28;20082;-83
2021/05/27 10:18:18;;;;;;;6.07;2.20;;;;;;;13.87;74.93;100781.38;5095684;28;20032;-81
2021/05/27 10:20:43;;;;;;;;;;;;;;;14.28;74.53;100788.31;5095886;28;20073;-84
2021/05/27 10:23:09;;;;;;;5.90;2.45;;;;;;;14.94;70.56;100787.00;5078512;28;19912;-82
2021/05/27 10:25:34;;;;;;;7.53;2.33;;;;;;;15.74;69.06;100791.66;5095398;28;20399;-82
2021/05/27 10:28:11;;;;;;;6.22;2.20;;;;;;;19.74;56.54;100784.72;5095495;28;20434;-84
2021/05/27 10:30:40;;;;;;;5.47;1.43;;;;;;;22.98;46.48;100785.97;5095221;28;21304;-81
2021/05/27 10:33:07;;;;;;;8.82;2.03;;;;;;;23.23;46.75;100789.63;5094809;28;20044;-79
2021/05/27 10:35:46;;;;;;;;;;;;;;;21.78;49.75;100792.53;5095573;28;20039;-81
2021/05/27 10:38:11;;;;;;;;;;;;;;;19.71;54.05;100797.81;5103563;28;20007;-82
2021/05/27 10:40:37;;;;;;;5.88;1.50;;;;;;;18.31;58.84;100810.75;5074984;28;19948;-82
2021/05/27 10:43:11;;;;;;;3.90;1.10;;;;;;;16.69;61.31;100810.19;5058264;28;20029;-84
2021/05/27 10:45:55;;;;;;;3.80;1.35;;;;;;;15.94;65.02;100819.00;5058623;28;20034;-81
2021/05/27 10:48:23;;;;;;;2.40;1.00;;;;;;;15.43;65.00;100822.94;5091843;28;20078;-84
2021/05/27 10:50:49;;;;;;;3.65;1.05;;;;;;;15.30;67.66;100827.59;5074856;28;20020;-81
2021/05/27 10:53:33;;;;;;;2.28;0.85;;;;;;;15.10;67.44;100824.56;5075749;28;20017;-81
2021/05/27 10:55:59;;;;;;;1.88;0.77;;;;;;;14.68;66.67;100825.97;5075070;28;20067;-81
2021/05/27 10:58:49;;;;;;;2.83;0.80;;;;;;;14.63;69.23;100833.56;5074570;28;20388;-82
2021/05/27 11:01:33;;;;;;;4.20;1.00;;;;;;;14.38;70.06;100832.63;5087951;28;20028;-81
2021/05/27 11:04:28;;;;;;;3.40;1.00;;;;;;;14.40;70.78;100840.63;5093866;28;20059;-81
2021/05/27 11:07:17;;;;;;;1.88;0.70;;;;;;;14.55;67.29;100835.94;5091115;28;20035;-82
2021/05/27 11:09:45;;;;;;;2.45;1.30;;;;;;;15.60;67.96;100843.31;5066807;28;20052;-81
2021/05/27 11:12:17;;;;;;;3.13;1.13;;;;;;;18.30;59.69;100837.06;5077620;28;20077;-80
2021/05/27 11:14:46;;;;;;;1.95;0.80;;;;;;;18.40;56.48;100836.22;5077512;28;20046;-80
2021/05/27 11:17:12;;;;;;;2.00;0.88;;;;;;;17.96;57.33;100850.09;5077597;28;20084;-81
2021/05/27 11:19:51;;;;;;;5.32;0.90;;;;;;;18.39;58.11;100843.53;5095627;28;20027;-81
2021/05/27 11:25:15;;;;;;;2.95;0.60;;;;;;;24.54;41.85;100840.66;5095104;28;20066;-83
2021/05/27 11:27:44;;;;;;;1.67;0.60;;;;;;;27.84;33.83;100848.78;5094109;28;20464;-83
2021/05/27 11:30:36;;;;;;;2.30;0.52;;;;;;;25.57;36.81;100844.97;5093947;28;20532;-82
2021/05/27 11:33:15;;;;;;;4.22;0.80;;;;;;;22.73;41.58;100853.56;5093886;28;20052;-81
2021/05/27 11:35:43;;;;;;;3.53;0.70;;;;;;;19.14;48.66;100855.75;5073930;28;20028;-82
2021/05/27 11:38:13;;;;;;;0.50;0.40;;;;;;;16.49;54.80;100867.91;5073924;28;20032;-82
2021/05/27 11:40:41;;;;;;;2.03;0.68;;;;;;;15.09;62.24;100876.97;5074089;28;20020;-82